sensor_id;sensor_type;location;lat;lon;timestamp;P1;durP1;ratioP1;P2;durP2;ratioP2
20101;SDS011;10210;52.284;9.892;2023-04-05T00:01:40;11.13;;;4.33;;
20101;SDS011;10210;52.284;9.892;2023-04-05T00:04:06;11.33;;;4.23;;
20101;SDS011;10210;52.284;9.892;2023-04-05T00:06:32;12.17;;;4.60;;
20101;SDS011;10210;52.284;9.892;2023-04-05T00:08:58;11.80;;;3.90;;
20101;SDS011;10210;52.284;9.892;2023-04-05T00:11:29;10.53;;;3.97;;
20101;SDS011;10210;52.284;9.892;2023-04-05T00:14:00;11.63;;;4.00;;
20101;SDS011;10210;52.284;9.892;2023-04-05T00:16:27;11.13;;;3.87;;
20101;SDS011;10210;52.284;9.892;2023-04-05T00:18:55;11.57;;;4.20;;
20101;SDS011;10210;52.284;9.892;2023-04-05T00:21:21;12.73;;;4.23;;
20101;SDS011;10210;52.284;9.892;2023-04-05T00:23:49;10.03;;;3.73;;
20101;SDS011;10210;52.284;9.892;2023-04-05T00:26:18;11.23;;;4.00;;
20101;SDS011;10210;52.284;9.892;2023-04-05T00:28:46;10.43;;;3.40;;
20101;SDS011;10210;52.284;9.892;2023-04-05T00:31:15;10.80;;;3.73;;
20101;SDS011;10210;52.284;9.892;2023-04-05T00:33:42;10.90;;;3.87;;
20101;SDS011;10210;52.284;9.892;2023-04-05T00:36:15;10.97;;;3.63;;
20101;SDS011;10210;52.284;9.892;2023-04-05T00:38:43;8.77;;;3.47;;
20101;SDS011;10210;52.284;9.892;2023-04-05T00:41:11;9.67;;;3.60;;
20101;SDS011;10210;52.284;9.892;2023-04-05T00:43:37;10.37;;;4.00;;
20101;SDS011;10210;52.284;9.892;2023-04-05T00:46:04;9.90;;;3.70;;
20101;SDS011;10210;52.284;9.892;2023-04-05T00:48:31;10.00;;;3.70;;
20101;SDS011;10210;52.284;9.892;2023-04-05T00:50:59;12.37;;;3.83;;
20101;SDS011;10210;52.284;9.892;2023-04-05T00:53:25;12.00;;;4.00;;
20101;SDS011;10210;52.284;9.892;2023-04-05T00:55:51;11.03;;;4.00;;
20101;SDS011;10210;52.284;9.892;2023-04-05T00:58:18;12.83;;;4.13;;
20101;SDS011;10210;52.284;9.892;2023-04-05T01:01:03;12.47;;;3.90;;
20101;SDS011;10210;52.284;9.892;2023-04-05T01:03:58;11.90;;;3.87;;
20101;SDS011;10210;52.284;9.892;2023-04-05T01:09:15;10.87;;;3.43;;
20101;SDS011;10210;52.284;9.892;2023-04-05T01:11:58;11.97;;;4.23;;
20101;SDS011;10210;52.284;9.892;2023-04-05T01:14:30;12.13;;;3.80;;
20101;SDS011;10210;52.284;9.892;2023-04-05T01:16:56;11.13;;;4.10;;
20101;SDS011;10210;52.284;9.892;2023-04-05T01:19:24;11.93;;;3.90;;
20101;SDS011;10210;52.284;9.892;2023-04-05T01:22:14;11.13;;;3.70;;
20101;SDS011;10210;52.284;9.892;2023-04-05T01:30:25;11.33;;;4.13;;
20101;SDS011;10210;52.284;9.892;2023-04-05T01:33:03;10.10;;;3.70;;
20101;SDS011;10210;52.284;9.892;2023-04-05T01:35:44;11.33;;;4.27;;
20101;SDS011;10210;52.284;9.892;2023-04-05T01:38:44;10.80;;;4.00;;
20101;SDS011;10210;52.284;9.892;2023-04-05T01:41:14;11.00;;;4.20;;
20101;SDS011;10210;52.284;9.892;2023-04-05T01:43:40;11.83;;;4.83;;
20101;SDS011;10210;52.284;9.892;2023-04-05T01:46:06;11.30;;;4.20;;
20101;SDS011;10210;52.284;9.892;2023-04-05T01:48:31;11.87;;;4.00;;
20101;SDS011;10210;52.284;9.892;2023-04-05T01:50:57;12.10;;;4.33;;
20101;SDS011;10210;52.284;9.892;2023-04-05T01:53:23;11.03;;;4.53;;
20101;SDS011;10210;52.284;9.892;2023-04-05T01:55:49;13.77;;;4.43;;
20101;SDS011;10210;52.284;9.892;2023-04-05T01:58:15;11.90;;;4.37;;
20101;SDS011;10210;52.284;9.892;2023-04-05T02:00:41;11.73;;;4.17;;
20101;SDS011;10210;52.284;9.892;2023-04-05T02:03:06;11.50;;;4.30;;
20101;SDS011;10210;52.284;9.892;2023-04-05T02:05:32;13.40;;;4.10;;
20101;SDS011;10210;52.284;9.892;2023-04-05T02:07:57;10.43;;;3.67;;
20101;SDS011;10210;52.284;9.892;2023-04-05T02:10:23;11.80;;;4.10;;
20101;SDS011;10210;52.284;9.892;2023-04-05T02:12:49;10.17;;;3.43;;
20101;SDS011;10210;52.284;9.892;2023-04-05T02:15:15;10.37;;;3.90;;
20101;SDS011;10210;52.284;9.892;2023-04-05T02:17:41;11.67;;;3.80;;
20101;SDS011;10210;52.284;9.892;2023-04-05T02:20:10;13.63;;;4.10;;
20101;SDS011;10210;52.284;9.892;2023-04-05T02:22:38;9.90;;;3.67;;
20101;SDS011;10210;52.284;9.892;2023-04-05T02:25:06;11.67;;;4.10;;
20101;SDS011;10210;52.284;9.892;2023-04-05T02:27:33;12.33;;;4.03;;
20101;SDS011;10210;52.284;9.892;2023-04-05T02:29:59;10.23;;;3.77;;
20101;SDS011;10210;52.284;9.892;2023-04-05T02:32:25;12.40;;;4.13;;
20101;SDS011;10210;52.284;9.892;2023-04-05T02:34:50;13.73;;;4.50;;
20101;SDS011;10210;52.284;9.892;2023-04-05T02:37:18;11.90;;;4.33;;
20101;SDS011;10210;52.284;9.892;2023-04-05T02:39:44;13.03;;;4.30;;
20101;SDS011;10210;52.284;9.892;2023-04-05T02:42:10;12.77;;;5.00;;
20101;SDS011;10210;52.284;9.892;2023-04-05T02:44:36;12.97;;;4.77;;
20101;SDS011;10210;52.284;9.892;2023-04-05T02:47:03;13.77;;;5.10;;
20101;SDS011;10210;52.284;9.892;2023-04-05T02:49:28;13.53;;;4.80;;
20101;SDS011;10210;52.284;9.892;2023-04-05T02:51:54;13.13;;;4.50;;
20101;SDS011;10210;52.284;9.892;2023-04-05T02:54:20;12.27;;;4.80;;
20101;SDS011;10210;52.284;9.892;2023-04-05T02:56:46;13.13;;;4.30;;
20101;SDS011;10210;52.284;9.892;2023-04-05T02:59:14;12.43;;;4.63;;
20101;SDS011;10210;52.284;9.892;2023-04-05T03:01:41;13.63;;;4.23;;
20101;SDS011;10210;52.284;9.892;2023-04-05T03:04:08;11.03;;;3.93;;
20101;SDS011;10210;52.284;9.892;2023-04-05T03:06:36;11.90;;;4.10;;
20101;SDS011;10210;52.284;9.892;2023-04-05T03:09:02;11.30;;;4.20;;
20101;SDS011;10210;52.284;9.892;2023-04-05T03:11:29;10.70;;;3.83;;
20101;SDS011;10210;52.284;9.892;2023-04-05T03:13:55;12.83;;;4.10;;
20101;SDS011;10210;52.284;9.892;2023-04-05T03:16:21;11.30;;;4.07;;
20101;SDS011;10210;52.284;9.892;2023-04-05T03:18:49;11.80;;;4.30;;
20101;SDS011;10210;52.284;9.892;2023-04-05T03:21:15;12.83;;;4.67;;
20101;SDS011;10210;52.284;9.892;2023-04-05T03:23:41;12.23;;;4.37;;
20101;SDS011;10210;52.284;9.892;2023-04-05T03:26:10;14.77;;;5.17;;
20101;SDS011;10210;52.284;9.892;2023-04-05T03:28:38;12.53;;;4.97;;
20101;SDS011;10210;52.284;9.892;2023-04-05T03:31:09;14.17;;;5.43;;
20101;SDS011;10210;52.284;9.892;2023-04-05T03:33:37;14.10;;;5.27;;
20101;SDS011;10210;52.284;9.892;2023-04-05T03:36:03;14.13;;;5.00;;
20101;SDS011;10210;52.284;9.892;2023-04-05T03:38:30;15.13;;;5.10;;
20101;SDS011;10210;52.284;9.892;2023-04-05T03:40:56;14.77;;;4.90;;
20101;SDS011;10210;52.284;9.892;2023-04-05T03:43:22;12.60;;;4.93;;
20101;SDS011;10210;52.284;9.892;2023-04-05T03:45:48;12.70;;;4.60;;
20101;SDS011;10210;52.284;9.892;2023-04-05T03:48:14;12.33;;;5.10;;
20101;SDS011;10210;52.284;9.892;2023-04-05T03:50:44;13.60;;;4.93;;
20101;SDS011;10210;52.284;9.892;2023-04-05T03:53:10;12.00;;;4.50;;
20101;SDS011;10210;52.284;9.892;2023-04-05T03:55:37;13.07;;;5.23;;
20101;SDS011;10210;52.284;9.892;2023-04-05T03:58:04;11.57;;;4.37;;
20101;SDS011;10210;52.284;9.892;2023-04-05T04:00:30;13.63;;;5.83;;
20101;SDS011;10210;52.284;9.892;2023-04-05T04:02:56;13.67;;;5.20;;
20101;SDS011;10210;52.284;9.892;2023-04-05T04:05:21;12.87;;;4.70;;
20101;SDS011;10210;52.284;9.892;2023-04-05T04:07:47;13.50;;;5.10;;
20101;SDS011;10210;52.284;9.892;2023-04-05T04:10:13;12.33;;;4.73;;
20101;SDS011;10210;52.284;9.892;2023-04-05T04:12:42;10.97;;;4.00;;
20101;SDS011;10210;52.284;9.892;2023-04-05T04:15:09;12.07;;;4.40;;
20101;SDS011;10210;52.284;9.892;2023-04-05T04:17:35;12.67;;;4.67;;
20101;SDS011;10210;52.284;9.892;2023-04-05T04:20:03;13.70;;;4.87;;
20101;SDS011;10210;52.284;9.892;2023-04-05T04:22:37;12.03;;;4.60;;
20101;SDS011;10210;52.284;9.892;2023-04-05T04:25:07;13.17;;;4.83;;
20101;SDS011;10210;52.284;9.892;2023-04-05T04:27:39;12.37;;;4.07;;
20101;SDS011;10210;52.284;9.892;2023-04-05T04:30:13;12.83;;;4.87;;
20101;SDS011;10210;52.284;9.892;2023-04-05T04:32:39;13.73;;;4.67;;
20101;SDS011;10210;52.284;9.892;2023-04-05T04:35:19;10.60;;;4.03;;
20101;SDS011;10210;52.284;9.892;2023-04-05T04:37:56;11.70;;;4.50;;
20101;SDS011;10210;52.284;9.892;2023-04-05T04:42:56;12.37;;;4.60;;
20101;SDS011;10210;52.284;9.892;2023-04-05T04:45:23;11.60;;;4.27;;
20101;SDS011;10210;52.284;9.892;2023-04-05T04:47:50;11.67;;;4.20;;
20101;SDS011;10210;52.284;9.892;2023-04-05T04:50:17;12.57;;;5.00;;
20101;SDS011;10210;52.284;9.892;2023-04-05T04:52:45;12.33;;;4.30;;
20101;SDS011;10210;52.284;9.892;2023-04-05T04:55:11;12.43;;;4.40;;
20101;SDS011;10210;52.284;9.892;2023-04-05T04:57:38;12.23;;;5.00;;
20101;SDS011;10210;52.284;9.892;2023-04-05T05:00:05;13.00;;;4.90;;
20101;SDS011;10210;52.284;9.892;2023-04-05T05:02:39;12.60;;;4.50;;
20101;SDS011;10210;52.284;9.892;2023-04-05T05:05:06;13.00;;;5.20;;
20101;SDS011;10210;52.284;9.892;2023-04-05T05:07:33;12.67;;;5.00;;
20101;SDS011;10210;52.284;9.892;2023-04-05T05:10:00;11.90;;;5.30;;
20101;SDS011;10210;52.284;9.892;2023-04-05T05:12:26;15.93;;;5.27;;
20101;SDS011;10210;52.284;9.892;2023-04-05T05:14:53;13.00;;;4.90;;
20101;SDS011;10210;52.284;9.892;2023-04-05T05:17:19;13.07;;;4.80;;
20101;SDS011;10210;52.284;9.892;2023-04-05T05:19:45;13.17;;;5.23;;
20101;SDS011;10210;52.284;9.892;2023-04-05T05:22:10;11.57;;;4.57;;
20101;SDS011;10210;52.284;9.892;2023-04-05T05:24:37;12.53;;;4.93;;
20101;SDS011;10210;52.284;9.892;2023-04-05T05:27:03;12.90;;;4.90;;
20101;SDS011;10210;52.284;9.892;2023-04-05T05:29:29;12.93;;;4.90;;
20101;SDS011;10210;52.284;9.892;2023-04-05T05:31:55;15.07;;;4.93;;
20101;SDS011;10210;52.284;9.892;2023-04-05T05:34:21;13.90;;;5.13;;
20101;SDS011;10210;52.284;9.892;2023-04-05T05:36:46;14.27;;;5.87;;
20101;SDS011;10210;52.284;9.892;2023-04-05T05:39:12;13.67;;;5.30;;
20101;SDS011;10210;52.284;9.892;2023-04-05T05:41:38;13.30;;;5.20;;
20101;SDS011;10210;52.284;9.892;2023-04-05T05:44:04;14.30;;;6.17;;
20101;SDS011;10210;52.284;9.892;2023-04-05T05:46:30;14.03;;;5.90;;
20101;SDS011;10210;52.284;9.892;2023-04-05T05:48:56;14.10;;;6.07;;
20101;SDS011;10210;52.284;9.892;2023-04-05T05:51:25;13.87;;;5.77;;
20101;SDS011;10210;52.284;9.892;2023-04-05T05:53:51;14.23;;;6.30;;
20101;SDS011;10210;52.284;9.892;2023-04-05T05:56:17;14.43;;;6.00;;
20101;SDS011;10210;52.284;9.892;2023-04-05T05:58:43;15.67;;;5.87;;
20101;SDS011;10210;52.284;9.892;2023-04-05T06:01:08;14.10;;;6.00;;
20101;SDS011;10210;52.284;9.892;2023-04-05T06:03:36;13.07;;;5.43;;
20101;SDS011;10210;52.284;9.892;2023-04-05T06:06:02;13.97;;;5.37;;
20101;SDS011;10210;52.284;9.892;2023-04-05T06:08:30;12.90;;;5.30;;
20101;SDS011;10210;52.284;9.892;2023-04-05T06:10:56;11.23;;;4.73;;
20101;SDS011;10210;52.284;9.892;2023-04-05T06:13:22;13.50;;;5.60;;
20101;SDS011;10210;52.284;9.892;2023-04-05T06:15:48;13.90;;;5.00;;
20101;SDS011;10210;52.284;9.892;2023-04-05T06:18:14;13.43;;;5.30;;
20101;SDS011;10210;52.284;9.892;2023-04-05T06:20:43;14.07;;;5.77;;
20101;SDS011;10210;52.284;9.892;2023-04-05T06:23:10;15.57;;;6.20;;
20101;SDS011;10210;52.284;9.892;2023-04-05T06:25:35;12.83;;;5.70;;
20101;SDS011;10210;52.284;9.892;2023-04-05T06:28:03;14.80;;;5.80;;
20101;SDS011;10210;52.284;9.892;2023-04-05T06:30:30;14.57;;;5.70;;
20101;SDS011;10210;52.284;9.892;2023-04-05T06:32:57;12.93;;;5.33;;
20101;SDS011;10210;52.284;9.892;2023-04-05T06:35:24;15.13;;;5.83;;
20101;SDS011;10210;52.284;9.892;2023-04-05T06:37:51;13.13;;;5.90;;
20101;SDS011;10210;52.284;9.892;2023-04-05T06:40:17;14.00;;;5.53;;
20101;SDS011;10210;52.284;9.892;2023-04-05T06:42:43;13.43;;;5.37;;
20101;SDS011;10210;52.284;9.892;2023-04-05T06:45:10;12.57;;;5.47;;
20101;SDS011;10210;52.284;9.892;2023-04-05T06:47:38;13.93;;;5.47;;
20101;SDS011;10210;52.284;9.892;2023-04-05T06:50:05;14.77;;;4.93;;
20101;SDS011;10210;52.284;9.892;2023-04-05T06:52:35;13.17;;;5.43;;
20101;SDS011;10210;52.284;9.892;2023-04-05T06:55:03;12.53;;;4.90;;
20101;SDS011;10210;52.284;9.892;2023-04-05T06:57:29;14.97;;;5.80;;
20101;SDS011;10210;52.284;9.892;2023-04-05T06:59:55;12.97;;;5.43;;
20101;SDS011;10210;52.284;9.892;2023-04-05T07:02:21;16.13;;;6.20;;
20101;SDS011;10210;52.284;9.892;2023-04-05T07:04:47;15.13;;;6.10;;
20101;SDS011;10210;52.284;9.892;2023-04-05T07:07:13;12.93;;;5.60;;
20101;SDS011;10210;52.284;9.892;2023-04-05T07:09:38;14.10;;;5.87;;
20101;SDS011;10210;52.284;9.892;2023-04-05T07:12:05;13.50;;;5.77;;
20101;SDS011;10210;52.284;9.892;2023-04-05T07:14:33;15.90;;;5.77;;
20101;SDS011;10210;52.284;9.892;2023-04-05T07:17:01;14.23;;;5.93;;
20101;SDS011;10210;52.284;9.892;2023-04-05T07:19:30;14.77;;;5.50;;
20101;SDS011;10210;52.284;9.892;2023-04-05T07:21:55;13.43;;;5.37;;
20101;SDS011;10210;52.284;9.892;2023-04-05T07:24:23;15.53;;;5.33;;
20101;SDS011;10210;52.284;9.892;2023-04-05T07:26:49;11.03;;;4.60;;
20101;SDS011;10210;52.284;9.892;2023-04-05T07:29:15;11.33;;;4.37;;
20101;SDS011;10210;52.284;9.892;2023-04-05T07:31:40;11.77;;;4.30;;
20101;SDS011;10210;52.284;9.892;2023-04-05T07:34:06;12.80;;;5.03;;
20101;SDS011;10210;52.284;9.892;2023-04-05T07:36:32;11.90;;;4.67;;
20101;SDS011;10210;52.284;9.892;2023-04-05T07:38:58;28.37;;;15.43;;
20101;SDS011;10210;52.284;9.892;2023-04-05T07:41:24;19.50;;;9.53;;
20101;SDS011;10210;52.284;9.892;2023-04-05T07:43:55;21.17;;;9.40;;
20101;SDS011;10210;52.284;9.892;2023-04-05T07:46:22;16.50;;;6.70;;
20101;SDS011;10210;52.284;9.892;2023-04-05T07:48:47;12.47;;;4.90;;
20101;SDS011;10210;52.284;9.892;2023-04-05T07:51:13;12.00;;;4.50;;
20101;SDS011;10210;52.284;9.892;2023-04-05T07:53:39;12.33;;;5.10;;
20101;SDS011;10210;52.284;9.892;2023-04-05T07:56:06;13.00;;;5.13;;
20101;SDS011;10210;52.284;9.892;2023-04-05T07:58:36;11.60;;;4.50;;
20101;SDS011;10210;52.284;9.892;2023-04-05T08:01:09;11.77;;;4.53;;
20101;SDS011;10210;52.284;9.892;2023-04-05T08:03:35;10.67;;;4.20;;
20101;SDS011;10210;52.284;9.892;2023-04-05T08:06:10;14.00;;;4.83;;
20101;SDS011;10210;52.284;9.892;2023-04-05T08:08:37;14.40;;;4.93;;
20101;SDS011;10210;52.284;9.892;2023-04-05T08:11:03;12.03;;;4.63;;
20101;SDS011;10210;52.284;9.892;2023-04-05T08:13:30;14.27;;;5.00;;
20101;SDS011;10210;52.284;9.892;2023-04-05T08:15:57;13.17;;;4.50;;
20101;SDS011;10210;52.284;9.892;2023-04-05T08:18:25;11.10;;;4.10;;
20101;SDS011;10210;52.284;9.892;2023-04-05T08:20:55;9.50;;;4.00;;
20101;SDS011;10210;52.284;9.892;2023-04-05T08:23:22;11.30;;;4.27;;
20101;SDS011;10210;52.284;9.892;2023-04-05T08:25:48;11.40;;;4.60;;
20101;SDS011;10210;52.284;9.892;2023-04-05T08:28:13;10.40;;;3.80;;
20101;SDS011;10210;52.284;9.892;2023-04-05T08:30:39;12.07;;;4.40;;
20101;SDS011;10210;52.284;9.892;2023-04-05T08:33:06;13.50;;;4.50;;
20101;SDS011;10210;52.284;9.892;2023-04-05T08:35:34;10.23;;;4.30;;
20101;SDS011;10210;52.284;9.892;2023-04-05T08:38:01;11.83;;;4.10;;
20101;SDS011;10210;52.284;9.892;2023-04-05T08:40:32;9.63;;;3.87;;
20101;SDS011;10210;52.284;9.892;2023-04-05T08:43:12;11.30;;;3.70;;
20101;SDS011;10210;52.284;9.892;2023-04-05T08:46:06;10.23;;;4.00;;
20101;SDS011;10210;52.284;9.892;2023-04-05T08:48:34;10.07;;;3.77;;
20101;SDS011;10210;52.284;9.892;2023-04-05T08:51:03;10.90;;;3.57;;
20101;SDS011;10210;52.284;9.892;2023-04-05T08:53:28;10.70;;;3.70;;
20101;SDS011;10210;52.284;9.892;2023-04-05T08:55:55;10.90;;;4.23;;
20101;SDS011;10210;52.284;9.892;2023-04-05T08:58:24;9.53;;;3.70;;
20101;SDS011;10210;52.284;9.892;2023-04-05T09:00:51;12.07;;;3.60;;
20101;SDS011;10210;52.284;9.892;2023-04-05T09:03:23;10.43;;;3.37;;
20101;SDS011;10210;52.284;9.892;2023-04-05T09:05:56;8.77;;;3.23;;
20101;SDS011;10210;52.284;9.892;2023-04-05T09:08:23;7.53;;;2.77;;
20101;SDS011;10210;52.284;9.892;2023-04-05T09:10:49;7.50;;;2.90;;
20101;SDS011;10210;52.284;9.892;2023-04-05T09:13:15;9.70;;;2.90;;
20101;SDS011;10210;52.284;9.892;2023-04-05T09:15:42;8.83;;;2.57;;
20101;SDS011;10210;52.284;9.892;2023-04-05T09:18:08;7.33;;;2.77;;
20101;SDS011;10210;52.284;9.892;2023-04-05T09:20:34;7.67;;;2.63;;
20101;SDS011;10210;52.284;9.892;2023-04-05T09:23:00;6.27;;;2.50;;
20101;SDS011;10210;52.284;9.892;2023-04-05T09:25:33;9.53;;;2.83;;
20101;SDS011;10210;52.284;9.892;2023-04-05T09:28:07;7.97;;;2.60;;
20101;SDS011;10210;52.284;9.892;2023-04-05T09:30:36;8.30;;;2.90;;
20101;SDS011;10210;52.284;9.892;2023-04-05T09:33:03;8.03;;;2.70;;
20101;SDS011;10210;52.284;9.892;2023-04-05T09:35:32;8.40;;;3.00;;
20101;SDS011;10210;52.284;9.892;2023-04-05T09:38:00;9.17;;;2.70;;
20101;SDS011;10210;52.284;9.892;2023-04-05T09:40:48;7.57;;;2.70;;
20101;SDS011;10210;52.284;9.892;2023-04-05T09:46:01;7.17;;;2.60;;
20101;SDS011;10210;52.284;9.892;2023-04-05T09:48:45;7.07;;;2.50;;
20101;SDS011;10210;52.284;9.892;2023-04-05T09:51:16;7.93;;;2.33;;
20101;SDS011;10210;52.284;9.892;2023-04-05T09:54:16;7.40;;;2.50;;
20101;SDS011;10210;52.284;9.892;2023-04-05T09:56:36;7.57;;;2.50;;
20101;SDS011;10210;52.284;9.892;2023-04-05T09:59:09;6.00;;;2.43;;
20101;SDS011;10210;52.284;9.892;2023-04-05T10:01:36;6.83;;;2.67;;
20101;SDS011;10210;52.284;9.892;2023-04-05T10:04:07;6.50;;;2.60;;
20101;SDS011;10210;52.284;9.892;2023-04-05T10:06:39;6.23;;;2.40;;
20101;SDS011;10210;52.284;9.892;2023-04-05T10:09:07;7.13;;;2.60;;
20101;SDS011;10210;52.284;9.892;2023-04-05T10:11:35;7.87;;;2.90;;
20101;SDS011;10210;52.284;9.892;2023-04-05T10:14:04;5.90;;;2.70;;
20101;SDS011;10210;52.284;9.892;2023-04-05T10:16:32;8.87;;;3.23;;
20101;SDS011;10210;52.284;9.892;2023-04-05T10:19:07;8.80;;;3.00;;
20101;SDS011;10210;52.284;9.892;2023-04-05T10:21:58;8.50;;;3.20;;
20101;SDS011;10210;52.284;9.892;2023-04-05T10:24:33;9.60;;;3.37;;
20101;SDS011;10210;52.284;9.892;2023-04-05T10:27:16;9.50;;;3.20;;
20101;SDS011;10210;52.284;9.892;2023-04-05T10:30:07;9.60;;;3.40;;
20101;SDS011;10210;52.284;9.892;2023-04-05T10:38:28;7.93;;;3.07;;
20101;SDS011;10210;52.284;9.892;2023-04-05T10:41:04;8.47;;;3.10;;
20101;SDS011;10210;52.284;9.892;2023-04-05T10:43:38;9.87;;;3.37;;
20101;SDS011;10210;52.284;9.892;2023-04-05T10:46:06;9.67;;;3.47;;
20101;SDS011;10210;52.284;9.892;2023-04-05T10:48:48;9.47;;;3.40;;
20101;SDS011;10210;52.284;9.892;2023-04-05T10:51:32;9.83;;;3.60;;
20101;SDS011;10210;52.284;9.892;2023-04-05T10:53:59;8.87;;;3.47;;
20101;SDS011;10210;52.284;9.892;2023-04-05T10:56:28;7.80;;;3.10;;
20101;SDS011;10210;52.284;9.892;2023-04-05T10:58:56;8.77;;;3.13;;
20101;SDS011;10210;52.284;9.892;2023-04-05T11:01:24;8.60;;;3.60;;
20101;SDS011;10210;52.284;9.892;2023-04-05T11:03:54;9.07;;;3.40;;
20101;SDS011;10210;52.284;9.892;2023-04-05T11:06:25;7.97;;;3.40;;
20101;SDS011;10210;52.284;9.892;2023-04-05T11:11:40;8.23;;;3.53;;
20101;SDS011;10210;52.284;9.892;2023-04-05T11:17:03;8.40;;;3.30;;
20101;SDS011;10210;52.284;9.892;2023-04-05T11:19:49;9.27;;;3.80;;
20101;SDS011;10210;52.284;9.892;2023-04-05T11:22:26;7.27;;;3.37;;
20101;SDS011;10210;52.284;9.892;2023-04-05T11:25:03;6.37;;;3.20;;
20101;SDS011;10210;52.284;9.892;2023-04-05T11:27:33;10.77;;;3.50;;
20101;SDS011;10210;52.284;9.892;2023-04-05T11:30:05;10.00;;;3.60;;
20101;SDS011;10210;52.284;9.892;2023-04-05T11:35:23;11.00;;;3.80;;
20101;SDS011;10210;52.284;9.892;2023-04-05T11:43:48;11.03;;;3.93;;
20101;SDS011;10210;52.284;9.892;2023-04-05T11:46:17;9.73;;;3.67;;
20101;SDS011;10210;52.284;9.892;2023-04-05T11:48:55;10.37;;;3.70;;
20101;SDS011;10210;52.284;9.892;2023-04-05T11:51:21;9.27;;;3.90;;
20101;SDS011;10210;52.284;9.892;2023-04-05T11:53:50;9.40;;;3.80;;
20101;SDS011;10210;52.284;9.892;2023-04-05T11:56:16;10.07;;;4.00;;
20101;SDS011;10210;52.284;9.892;2023-04-05T11:58:43;8.87;;;3.80;;
20101;SDS011;10210;52.284;9.892;2023-04-05T12:01:09;9.40;;;4.00;;
20101;SDS011;10210;52.284;9.892;2023-04-05T12:03:35;10.53;;;3.90;;
20101;SDS011;10210;52.284;9.892;2023-04-05T12:06:03;9.47;;;3.90;;
20101;SDS011;10210;52.284;9.892;2023-04-05T12:08:40;9.57;;;4.40;;
20101;SDS011;10210;52.284;9.892;2023-04-05T12:11:14;9.23;;;3.90;;
20101;SDS011;10210;52.284;9.892;2023-04-05T12:13:52;9.70;;;4.30;;
20101;SDS011;10210;52.284;9.892;2023-04-05T12:16:20;9.87;;;4.20;;
20101;SDS011;10210;52.284;9.892;2023-04-05T12:18:51;9.37;;;4.33;;
20101;SDS011;10210;52.284;9.892;2023-04-05T12:21:27;9.03;;;3.90;;
20101;SDS011;10210;52.284;9.892;2023-04-05T12:23:53;10.83;;;4.47;;
20101;SDS011;10210;52.284;9.892;2023-04-05T12:26:19;9.10;;;3.90;;
20101;SDS011;10210;52.284;9.892;2023-04-05T12:28:53;9.27;;;3.93;;
20101;SDS011;10210;52.284;9.892;2023-04-05T12:31:34;8.83;;;3.80;;
20101;SDS011;10210;52.284;9.892;2023-04-05T12:34:09;9.37;;;3.90;;
20101;SDS011;10210;52.284;9.892;2023-04-05T12:36:42;9.93;;;4.20;;
20101;SDS011;10210;52.284;9.892;2023-04-05T12:39:10;9.93;;;4.33;;
20101;SDS011;10210;52.284;9.892;2023-04-05T12:41:42;8.40;;;3.70;;
20101;SDS011;10210;52.284;9.892;2023-04-05T12:44:15;10.20;;;4.27;;
20101;SDS011;10210;52.284;9.892;2023-04-05T12:46:52;17.53;;;4.00;;
20101;SDS011;10210;52.284;9.892;2023-04-05T12:49:39;9.20;;;4.00;;
20101;SDS011;10210;52.284;9.892;2023-04-05T12:52:05;9.63;;;3.90;;
20101;SDS011;10210;52.284;9.892;2023-04-05T12:54:30;9.60;;;4.10;;
20101;SDS011;10210;52.284;9.892;2023-04-05T12:57:00;13.50;;;4.23;;
20101;SDS011;10210;52.284;9.892;2023-04-05T12:59:28;9.27;;;3.93;;
20101;SDS011;10210;52.284;9.892;2023-04-05T13:01:57;8.93;;;3.80;;
20101;SDS011;10210;52.284;9.892;2023-04-05T13:04:22;8.53;;;3.47;;
20101;SDS011;10210;52.284;9.892;2023-04-05T13:06:50;8.90;;;3.57;;
20101;SDS011;10210;52.284;9.892;2023-04-05T13:09:16;9.83;;;3.70;;
20101;SDS011;10210;52.284;9.892;2023-04-05T13:11:41;9.10;;;3.90;;
20101;SDS011;10210;52.284;9.892;2023-04-05T13:14:07;9.53;;;3.77;;
20101;SDS011;10210;52.284;9.892;2023-04-05T13:16:33;10.40;;;4.17;;
20101;SDS011;10210;52.284;9.892;2023-04-05T13:18:58;9.70;;;4.40;;
20101;SDS011;10210;52.284;9.892;2023-04-05T13:21:24;8.80;;;3.80;;
20101;SDS011;10210;52.284;9.892;2023-04-05T13:23:49;9.47;;;3.80;;
20101;SDS011;10210;52.284;9.892;2023-04-05T13:26:15;10.00;;;3.70;;
20101;SDS011;10210;52.284;9.892;2023-04-05T13:29:02;10.47;;;3.90;;
20101;SDS011;10210;52.284;9.892;2023-04-05T13:31:27;9.97;;;3.80;;
20101;SDS011;10210;52.284;9.892;2023-04-05T13:33:53;10.60;;;4.00;;
20101;SDS011;10210;52.284;9.892;2023-04-05T13:36:19;10.23;;;3.80;;
20101;SDS011;10210;52.284;9.892;2023-04-05T13:38:44;11.13;;;4.17;;
20101;SDS011;10210;52.284;9.892;2023-04-05T13:41:13;9.20;;;4.03;;
20101;SDS011;10210;52.284;9.892;2023-04-05T13:43:42;10.47;;;4.57;;
20101;SDS011;10210;52.284;9.892;2023-04-05T13:46:07;9.03;;;3.73;;
20101;SDS011;10210;52.284;9.892;2023-04-05T13:48:33;10.87;;;4.07;;
20101;SDS011;10210;52.284;9.892;2023-04-05T13:50:58;10.10;;;4.03;;
20101;SDS011;10210;52.284;9.892;2023-04-05T13:53:24;7.70;;;3.73;;
20101;SDS011;10210;52.284;9.892;2023-04-05T13:55:50;10.97;;;4.40;;
20101;SDS011;10210;52.284;9.892;2023-04-05T13:58:15;9.90;;;4.10;;
20101;SDS011;10210;52.284;9.892;2023-04-05T14:00:41;9.77;;;4.20;;
20101;SDS011;10210;52.284;9.892;2023-04-05T14:03:06;9.67;;;4.30;;
20101;SDS011;10210;52.284;9.892;2023-04-05T14:05:32;9.63;;;4.30;;
20101;SDS011;10210;52.284;9.892;2023-04-05T14:07:58;11.43;;;4.33;;
20101;SDS011;10210;52.284;9.892;2023-04-05T14:10:32;9.17;;;3.97;;
20101;SDS011;10210;52.284;9.892;2023-04-05T14:12:58;8.77;;;4.00;;
20101;SDS011;10210;52.284;9.892;2023-04-05T14:15:24;9.67;;;4.20;;
20101;SDS011;10210;52.284;9.892;2023-04-05T14:17:49;9.10;;;4.10;;
20101;SDS011;10210;52.284;9.892;2023-04-05T14:20:15;10.90;;;4.20;;
20101;SDS011;10210;52.284;9.892;2023-04-05T14:22:41;9.77;;;4.37;;
20101;SDS011;10210;52.284;9.892;2023-04-05T14:25:06;8.40;;;3.70;;
20101;SDS011;10210;52.284;9.892;2023-04-05T14:27:33;9.13;;;4.00;;
20101;SDS011;10210;52.284;9.892;2023-04-05T14:30:01;9.33;;;4.00;;
20101;SDS011;10210;52.284;9.892;2023-04-05T14:32:27;8.67;;;3.90;;
20101;SDS011;10210;52.284;9.892;2023-04-05T14:34:53;10.87;;;4.03;;
20101;SDS011;10210;52.284;9.892;2023-04-05T14:37:18;9.83;;;3.73;;
20101;SDS011;10210;52.284;9.892;2023-04-05T14:39:44;10.23;;;4.13;;
20101;SDS011;10210;52.284;9.892;2023-04-05T14:42:11;7.63;;;3.67;;
20101;SDS011;10210;52.284;9.892;2023-04-05T14:44:36;8.73;;;3.67;;
20101;SDS011;10210;52.284;9.892;2023-04-05T14:47:03;10.67;;;4.40;;
20101;SDS011;10210;52.284;9.892;2023-04-05T14:49:29;11.30;;;4.10;;
20101;SDS011;10210;52.284;9.892;2023-04-05T14:51:54;10.37;;;4.60;;
20101;SDS011;10210;52.284;9.892;2023-04-05T14:54:21;10.87;;;4.30;;
20101;SDS011;10210;52.284;9.892;2023-04-05T14:56:55;10.20;;;4.17;;
20101;SDS011;10210;52.284;9.892;2023-04-05T14:59:21;8.87;;;3.90;;
20101;SDS011;10210;52.284;9.892;2023-04-05T15:01:46;10.03;;;4.33;;
20101;SDS011;10210;52.284;9.892;2023-04-05T15:04:12;10.27;;;4.00;;
20101;SDS011;10210;52.284;9.892;2023-04-05T15:06:38;9.47;;;4.40;;
20101;SDS011;10210;52.284;9.892;2023-04-05T15:09:06;10.67;;;4.20;;
20101;SDS011;10210;52.284;9.892;2023-04-05T15:11:32;9.23;;;4.30;;
20101;SDS011;10210;52.284;9.892;2023-04-05T15:14:02;8.77;;;3.93;;
20101;SDS011;10210;52.284;9.892;2023-04-05T15:16:28;10.07;;;3.93;;
20101;SDS011;10210;52.284;9.892;2023-04-05T15:18:54;9.97;;;3.93;;
20101;SDS011;10210;52.284;9.892;2023-04-05T15:21:20;10.67;;;4.00;;